createdAt,value
2023-03-03T00:00:46.368Z,99.90
2023-03-03T00:03:17.737Z,99.90
2023-03-03T00:05:47.378Z,99.90
2023-03-03T00:08:15.458Z,99.90
2023-03-03T00:10:46.227Z,99.90
2023-03-03T00:18:23.960Z,99.80
2023-03-03T00:20:55.315Z,99.30
2023-03-03T00:23:30.049Z,92.50
2023-03-03T00:25:59.624Z,96.50
2023-03-03T00:28:32.001Z,96.80
2023-03-03T00:33:33.597Z,95.10
2023-03-03T00:36:28.844Z,92.30
2023-03-03T00:39:01.321Z,92.80
2023-03-03T00:41:31.931Z,91.10
2023-03-03T00:44:35.705Z,90.70
2023-03-03T00:47:20.200Z,89.70
2023-03-03T00:49:49.690Z,83.50
2023-03-03T00:52:20.286Z,83.10
2023-03-03T00:54:49.619Z,79.70
2023-03-03T00:57:19.499Z,82.50
2023-03-03T00:59:50.820Z,82.20
2023-03-03T01:02:19.248Z,81.00
2023-03-03T01:04:52.239Z,85.40
2023-03-03T01:07:20.561Z,76.50
2023-03-03T01:09:49.936Z,75.70
2023-03-03T01:12:18.191Z,64.20
2023-03-03T01:14:49.326Z,57.70
2023-03-03T01:17:20.595Z,55.00
2023-03-03T01:19:49.840Z,52.50
2023-03-03T01:22:17.822Z,55.30
2023-03-03T01:27:15.589Z,57.00
2023-03-03T01:29:44.881Z,60.10
2023-03-03T01:37:13.552Z,57.20
2023-03-03T01:44:44.599Z,49.70
2023-03-03T01:47:16.880Z,49.70
2023-03-03T01:49:50.235Z,49.70
2023-03-03T01:52:27.330Z,49.80
2023-03-03T01:54:58.536Z,50.30
2023-03-03T02:02:41.826Z,49.80
2023-03-03T02:05:14.028Z,49.70
2023-03-03T02:07:45.377Z,49.70
2023-03-03T02:10:17.049Z,49.70
2023-03-03T02:12:47.708Z,49.70
2023-03-03T02:15:20.152Z,49.60
2023-03-03T02:17:50.797Z,49.70
2023-03-03T02:20:31.281Z,49.60
2023-03-03T02:23:06.319Z,37.10
2023-03-03T02:25:41.226Z,49.60
2023-03-03T02:28:10.590Z,49.50
2023-03-03T02:30:40.746Z,49.60
2023-03-03T02:35:41.808Z,49.60
2023-03-03T02:38:20.400Z,49.60
2023-03-03T02:43:27.977Z,49.60
2023-03-03T02:45:59.020Z,49.60
2023-03-03T02:48:28.176Z,49.60
2023-03-03T02:50:59.024Z,49.60
2023-03-03T02:53:28.214Z,49.60
2023-03-03T02:55:56.573Z,49.50
2023-03-03T02:58:26.032Z,49.60
2023-03-03T03:00:56.969Z,49.60
2023-03-03T03:03:25.285Z,49.50
2023-03-03T03:05:55.003Z,49.60
2023-03-03T03:08:24.849Z,49.50
2023-03-03T03:13:26.832Z,49.60
2023-03-03T03:18:27.386Z,49.60
2023-03-03T03:20:59.012Z,49.60
2023-03-03T03:23:28.924Z,49.70
2023-03-03T03:25:58.042Z,49.60
2023-03-03T03:28:31.484Z,49.70
2023-03-03T03:31:02.761Z,49.60
2023-03-03T03:38:32.559Z,49.20
2023-03-03T03:41:02.090Z,49.50
2023-03-03T03:43:31.663Z,51.00
2023-03-03T03:46:03.362Z,49.60
2023-03-03T03:48:32.652Z,49.60
2023-03-03T03:51:04.552Z,49.60
2023-03-03T03:53:35.001Z,49.60
2023-03-03T03:56:04.592Z,49.40
2023-03-03T03:58:35.511Z,49.60
2023-03-03T04:01:09.227Z,49.20
2023-03-03T04:03:43.662Z,38.30
2023-03-03T04:06:15.245Z,48.70
2023-03-03T04:08:43.747Z,49.10
2023-03-03T04:11:12.905Z,49.30
2023-03-03T04:13:42.371Z,49.50
2023-03-03T04:16:11.309Z,49.50
2023-03-03T04:21:18.718Z,49.60
2023-03-03T04:23:48.309Z,49.60
2023-03-03T04:26:16.319Z,49.60
2023-03-03T04:33:49.509Z,49.60
2023-03-03T04:36:19.781Z,49.50
2023-03-03T04:38:50.077Z,49.20
2023-03-03T04:41:19.820Z,49.50
2023-03-03T04:43:49.754Z,49.10
2023-03-03T04:46:19.123Z,49.40
2023-03-03T04:51:19.832Z,49.40
2023-03-03T04:53:49.111Z,49.40
2023-03-03T04:56:18.580Z,49.20
2023-03-03T04:58:49.217Z,49.20
2023-03-03T05:01:20.843Z,49.20
2023-03-03T05:03:50.173Z,49.10
2023-03-03T05:06:19.866Z,38.90
2023-03-03T05:11:17.498Z,49.10
2023-03-03T05:16:17.390Z,49.10
2023-03-03T05:18:47.498Z,49.10
2023-03-03T05:23:45.831Z,49.20
2023-03-03T05:28:43.760Z,49.10
2023-03-03T05:31:13.502Z,49.20
2023-03-03T05:33:43.187Z,49.20
2023-03-03T05:36:13.916Z,49.10
2023-03-03T05:43:39.775Z,49.00
2023-03-03T05:46:09.415Z,48.90
2023-03-03T05:48:38.810Z,49.00
2023-03-03T05:51:11.079Z,48.90
2023-03-03T05:53:40.335Z,48.90
2023-03-03T05:56:09.872Z,48.90
2023-03-03T05:58:39.042Z,48.90
2023-03-03T06:01:08.385Z,48.90
2023-03-03T06:03:37.761Z,49.00
2023-03-03T06:06:09.432Z,50.50
2023-03-03T06:08:40.308Z,70.20
2023-03-03T06:11:09.742Z,76.20
2023-03-03T06:13:38.297Z,82.10
2023-03-03T06:16:07.205Z,87.40
2023-03-03T06:18:36.356Z,90.40
2023-03-03T06:23:34.345Z,93.50
2023-03-03T06:26:03.798Z,94.60
2023-03-03T06:28:34.212Z,98.70
2023-03-03T06:31:03.931Z,99.60
2023-03-03T06:33:34.576Z,98.90
2023-03-03T06:38:35.487Z,98.70
2023-03-03T06:41:08.607Z,99.90
2023-03-03T06:43:38.711Z,99.90
2023-03-03T06:48:37.997Z,99.90
2023-03-03T07:01:18.152Z,99.90
2023-03-03T07:03:48.354Z,99.90
2023-03-03T07:06:22.821Z,99.90
2023-03-03T07:11:25.055Z,99.90
2023-03-03T07:13:55.413Z,99.90
2023-03-03T07:18:59.414Z,99.90
2023-03-03T07:24:13.763Z,99.90
2023-03-03T07:26:43.477Z,99.90
2023-03-03T07:29:20.772Z,99.90
2023-03-03T07:31:49.569Z,99.90
2023-03-03T07:36:50.949Z,98.00
2023-03-03T07:42:14.413Z,92.30
2023-03-03T07:52:28.613Z,49.50
2023-03-03T07:55:00.009Z,49.60
2023-03-03T08:00:51.999Z,49.50
2023-03-03T08:05:50.813Z,49.00
2023-03-03T08:08:37.691Z,32.60
2023-03-03T08:11:09.602Z,21.70
2023-03-03T08:13:42.940Z,17.90
2023-03-03T08:16:37.194Z,12.50
2023-03-03T08:19:07.855Z,2.60
2023-03-03T08:24:06.907Z,1.00
2023-03-03T08:29:07.102Z,1.00
2023-03-03T08:36:39.524Z,1.00
2023-03-03T08:39:10.547Z,1.00
2023-03-03T08:41:43.707Z,1.00
2023-03-03T08:44:15.818Z,1.00
2023-03-03T08:46:45.240Z,1.00
2023-03-03T08:49:13.293Z,1.00
2023-03-03T08:54:13.649Z,1.00
2023-03-03T08:59:13.796Z,1.00
2023-03-03T09:09:15.278Z,1.00
2023-03-03T09:11:44.780Z,1.00
2023-03-03T09:14:19.256Z,1.00
2023-03-03T09:19:23.563Z,1.00
2023-03-03T09:21:54.843Z,1.00
2023-03-03T09:24:28.687Z,1.00
2023-03-03T09:26:58.839Z,1.00
2023-03-03T09:29:30.248Z,1.00
2023-03-03T09:34:41.112Z,1.00
2023-03-03T09:37:22.230Z,1.00
2023-03-03T09:42:42.977Z,1.00
2023-03-03T09:45:27.586Z,1.00
2023-03-03T09:50:38.148Z,1.00
2023-03-03T09:53:20.903Z,1.00
2023-03-03T09:55:55.662Z,1.00
2023-03-03T09:58:46.876Z,1.00
2023-03-03T10:01:34.429Z,1.00
2023-03-03T10:04:24.793Z,1.00
2023-03-03T10:09:49.611Z,1.00
2023-03-03T10:12:24.058Z,1.00
2023-03-03T10:15:19.681Z,1.00
2023-03-03T10:17:53.758Z,1.00
2023-03-03T10:20:40.415Z,1.00
2023-03-03T10:23:22.677Z,1.00
2023-03-03T10:28:58.392Z,1.00
2023-03-03T10:31:35.713Z,1.00
2023-03-03T10:34:18.414Z,1.00
2023-03-03T10:36:54.946Z,1.00
2023-03-03T10:39:33.784Z,1.00
2023-03-03T10:42:21.109Z,1.00
2023-03-03T10:45:09.478Z,1.00
2023-03-03T10:48:06.028Z,1.00
2023-03-03T10:50:49.154Z,1.00
2023-03-03T10:53:24.465Z,1.00
2023-03-03T10:56:07.792Z,1.00
2023-03-03T10:58:47.511Z,1.00
2023-03-03T11:01:26.581Z,1.00
2023-03-03T11:04:14.844Z,1.00
2023-03-03T11:11:55.719Z,1.00
2023-03-03T11:14:33.683Z,1.00
2023-03-03T11:17:11.238Z,1.00
2023-03-03T11:19:51.364Z,1.00
2023-03-03T11:22:33.337Z,1.00
2023-03-03T11:25:09.787Z,1.00
2023-03-03T11:30:35.831Z,1.00
2023-03-03T11:33:07.939Z,1.00
2023-03-03T11:35:42.254Z,1.00
2023-03-03T11:38:22.768Z,1.00
2023-03-03T11:43:36.943Z,1.00
2023-03-03T11:51:15.685Z,1.00
2023-03-03T11:53:56.055Z,1.00
2023-03-03T11:56:26.600Z,1.00
2023-03-03T11:59:08.006Z,1.00
2023-03-03T12:01:40.039Z,1.00
2023-03-03T12:04:16.960Z,1.00
2023-03-03T12:07:09.764Z,1.00
2023-03-03T12:09:59.829Z,1.00
2023-03-03T12:15:10.889Z,1.00
2023-03-03T12:23:12.289Z,1.00
2023-03-03T12:31:04.653Z,1.00
2023-03-03T12:38:51.723Z,1.00
2023-03-03T12:41:29.174Z,1.00
2023-03-03T12:46:42.356Z,1.00
2023-03-03T12:57:20.900Z,1.00
2023-03-03T13:00:05.041Z,1.00
2023-03-03T13:02:44.884Z,1.00
2023-03-03T13:08:29.428Z,1.00
2023-03-03T13:11:01.392Z,1.00
2023-03-03T13:13:36.939Z,1.00
2023-03-03T13:18:49.097Z,1.00
2023-03-03T13:23:55.780Z,1.00
2023-03-03T13:26:27.425Z,1.00
2023-03-03T13:31:35.147Z,1.00
2023-03-03T13:36:41.384Z,1.00
2023-03-03T13:41:50.673Z,1.00
2023-03-03T13:44:25.373Z,1.00
2023-03-03T13:47:04.010Z,1.00
2023-03-03T13:49:42.884Z,1.00
2023-03-03T13:52:15.930Z,1.00
2023-03-03T14:02:57.243Z,1.00
2023-03-03T14:05:33.864Z,1.00
2023-03-03T14:10:41.828Z,1.00
2023-03-03T14:18:26.086Z,1.00
2023-03-03T14:20:57.525Z,1.00
2023-03-03T14:31:26.624Z,1.00
2023-03-03T14:49:38.093Z,1.00
2023-03-03T14:52:21.201Z,1.00
2023-03-03T14:59:58.718Z,1.00
2023-03-03T15:02:40.634Z,1.00
2023-03-03T15:07:56.745Z,1.00
2023-03-03T15:18:04.178Z,1.00
2023-03-03T15:25:58.963Z,1.00
2023-03-03T15:28:47.996Z,1.00
2023-03-03T15:31:27.007Z,1.00
2023-03-03T15:34:14.540Z,1.00
2023-03-03T15:39:24.882Z,1.00
2023-03-03T15:42:03.580Z,1.00
2023-03-03T15:50:24.133Z,1.00
2023-03-03T15:53:00.342Z,1.00
2023-03-03T15:55:37.109Z,1.00
2023-03-03T15:58:23.417Z,1.00
2023-03-03T16:01:02.179Z,1.00
2023-03-03T16:03:36.342Z,1.00
2023-03-03T16:08:47.017Z,1.00
2023-03-03T16:19:34.367Z,1.00
2023-03-03T16:22:26.398Z,1.00
2023-03-03T16:25:08.263Z,1.00
2023-03-03T16:27:45.617Z,1.00
2023-03-03T16:33:02.067Z,1.00
2023-03-03T16:35:34.524Z,1.00
2023-03-03T16:43:20.183Z,1.00
2023-03-03T16:45:50.828Z,1.00
2023-03-03T16:48:29.666Z,1.00
2023-03-03T16:51:16.657Z,1.00
2023-03-03T16:54:02.501Z,1.00
2023-03-03T16:56:37.418Z,1.00
2023-03-03T16:59:38.505Z,1.00
2023-03-03T17:04:48.651Z,1.00
2023-03-03T17:07:33.853Z,1.00
2023-03-03T17:10:28.760Z,1.00
2023-03-03T17:13:33.721Z,1.00
2023-03-03T17:16:09.594Z,1.00
2023-03-03T17:18:48.560Z,1.00
2023-03-03T17:21:28.094Z,1.00
2023-03-03T17:24:05.854Z,1.00
2023-03-03T17:26:46.171Z,1.00
2023-03-03T17:29:27.335Z,1.00
2023-03-03T17:32:03.206Z,1.00
2023-03-03T17:50:34.751Z,1.00
2023-03-03T17:53:32.780Z,1.00
2023-03-03T17:56:15.603Z,1.00
2023-03-03T18:01:43.686Z,1.00
2023-03-03T18:07:38.724Z,1.00
2023-03-03T18:13:04.137Z,1.00
2023-03-03T18:15:45.415Z,1.00
2023-03-03T18:21:07.308Z,1.00
2023-03-03T18:23:42.670Z,1.00
2023-03-03T18:26:35.007Z,1.00
2023-03-03T18:29:12.362Z,1.00
2023-03-03T18:32:04.187Z,1.00
2023-03-03T18:34:38.441Z,1.00
2023-03-03T18:37:14.191Z,1.00
2023-03-03T18:50:41.511Z,1.00
2023-03-03T18:53:17.333Z,1.00
2023-03-03T18:55:48.170Z,1.00
2023-03-03T18:58:35.855Z,1.00
2023-03-03T19:01:15.458Z,1.00
2023-03-03T19:06:35.167Z,1.00
2023-03-03T19:09:04.206Z,1.00
2023-03-03T19:11:40.582Z,1.00
2023-03-03T19:14:20.946Z,1.00
2023-03-03T19:16:51.847Z,1.00
2023-03-03T19:19:24.474Z,1.00
2023-03-03T19:22:14.157Z,1.00
2023-03-03T19:25:02.425Z,1.00
2023-03-03T19:27:33.391Z,1.00
2023-03-03T19:30:36.033Z,1.00
2023-03-03T19:36:16.221Z,1.00
2023-03-03T19:46:37.042Z,1.00
2023-03-03T19:49:16.631Z,1.00
2023-03-03T19:51:49.009Z,1.00
2023-03-03T19:54:28.612Z,1.00
2023-03-03T19:57:04.905Z,1.00
2023-03-03T19:59:38.934Z,1.00
2023-03-03T20:05:01.523Z,1.00
2023-03-03T20:07:35.156Z,1.00
2023-03-03T20:10:14.611Z,1.00
2023-03-03T20:13:00.265Z,1.00
2023-03-03T20:15:33.947Z,1.00
2023-03-03T20:18:22.892Z,1.00
2023-03-03T20:23:42.692Z,1.00
2023-03-03T20:26:17.564Z,1.00
2023-03-03T20:29:15.546Z,1.00
2023-03-03T20:31:50.654Z,1.00
2023-03-03T20:34:27.658Z,1.00
2023-03-03T20:37:03.800Z,1.00
2023-03-03T20:39:52.204Z,1.00
2023-03-03T20:42:34.510Z,1.00
2023-03-03T20:45:25.999Z,1.00
2023-03-03T20:48:05.904Z,1.00
2023-03-03T20:50:38.579Z,1.00
2023-03-03T20:58:25.932Z,1.00
2023-03-03T21:01:04.222Z,1.00
2023-03-03T21:03:36.828Z,1.00
2023-03-03T21:06:09.118Z,1.00
2023-03-03T21:08:43.275Z,1.00
2023-03-03T21:11:11.573Z,1.00
2023-03-03T21:13:41.458Z,1.00
2023-03-03T21:21:36.037Z,1.00
2023-03-03T21:24:05.704Z,1.00
2023-03-03T21:26:50.169Z,1.00
2023-03-03T21:29:20.074Z,1.00
2023-03-03T21:31:50.552Z,1.00
2023-03-03T21:34:21.683Z,1.00
2023-03-03T21:36:51.688Z,1.00
2023-03-03T21:39:26.938Z,1.00
2023-03-03T21:41:58.167Z,1.00
2023-03-03T21:44:38.197Z,1.00
2023-03-03T21:47:09.212Z,1.00
2023-03-03T21:49:42.171Z,1.00
2023-03-03T21:52:11.032Z,1.00
2023-03-03T21:57:13.047Z,1.00
2023-03-03T21:59:42.352Z,1.00
2023-03-03T22:02:13.429Z,1.00
2023-03-03T22:07:13.820Z,1.00
2023-03-03T22:09:43.360Z,1.00
2023-03-03T22:12:12.736Z,1.00
2023-03-03T22:14:42.229Z,1.00
2023-03-03T22:17:12.878Z,1.00
2023-03-03T22:19:43.356Z,1.00
2023-03-03T22:24:43.377Z,1.00
2023-03-03T22:27:12.867Z,1.00
2023-03-03T22:34:44.173Z,1.00
2023-03-03T22:37:13.500Z,1.00
2023-03-03T22:39:43.016Z,1.00
2023-03-03T22:44:41.739Z,1.00
2023-03-03T22:49:41.683Z,1.00
2023-03-03T22:52:11.200Z,1.00
2023-03-03T22:54:39.186Z,1.00
2023-03-03T22:57:08.445Z,1.00
2023-03-03T23:02:06.617Z,1.00
2023-03-03T23:04:36.019Z,1.00
2023-03-03T23:07:05.298Z,1.00
2023-03-03T23:09:35.864Z,1.00
2023-03-03T23:12:05.385Z,1.00
2023-03-03T23:14:34.937Z,1.00
2023-03-03T23:17:04.102Z,1.00
2023-03-03T23:19:32.106Z,1.00
2023-03-03T23:24:31.459Z,1.00
2023-03-03T23:27:00.948Z,1.00
2023-03-03T23:32:00.336Z,1.00
2023-03-03T23:34:28.639Z,1.00
2023-03-03T23:36:58.171Z,1.00
2023-03-03T23:39:27.721Z,1.00
2023-03-03T23:41:57.417Z,1.00
2023-03-03T23:44:26.826Z,1.00
2023-03-03T23:46:56.281Z,1.00
2023-03-03T23:49:25.917Z,1.00
2023-03-03T23:51:55.162Z,1.00
2023-03-03T23:54:23.137Z,1.00
2023-03-03T23:56:51.232Z,1.00
2023-03-03T23:59:20.476Z,1.00
